createdAt,value
2017-09-26T00:00:07.561Z,1019.38
2017-09-26T00:01:07.584Z,1019.42
2017-09-26T00:02:07.605Z,1019.42
2017-09-26T00:03:07.626Z,1019.41
2017-09-26T00:04:07.649Z,1019.38
2017-09-26T00:05:07.671Z,1019.4
2017-09-26T00:06:07.695Z,1019.37
2017-09-26T00:07:07.717Z,1019.37
2017-09-26T00:09:07.759Z,1019.34
2017-09-26T00:10:07.780Z,1019.4
2017-09-26T00:11:07.803Z,1019.37
2017-09-26T00:12:07.824Z,1019.37
2017-09-26T00:13:07.846Z,1019.38
2017-09-26T00:14:07.867Z,1019.4
2017-09-26T00:15:07.889Z,1019.4
2017-09-26T00:16:07.913Z,1019.41
2017-09-26T00:17:07.934Z,1019.46
2017-09-26T00:18:07.954Z,1019.45
2017-09-26T00:19:07.976Z,1019.42
2017-09-26T00:20:07.998Z,1019.47
2017-09-26T00:21:08.019Z,1019.45
2017-09-26T00:22:08.045Z,1019.47
2017-09-26T00:23:08.064Z,1019.46
2017-09-26T00:24:08.087Z,1019.46
2017-09-26T00:25:08.108Z,1019.46
2017-09-26T00:26:08.128Z,1019.43
2017-09-26T00:27:08.150Z,1019.44
2017-09-26T00:28:08.171Z,1019.46
2017-09-26T00:29:08.194Z,1019.47
2017-09-26T00:30:08.216Z,1019.49
2017-09-26T00:31:08.239Z,1019.48
2017-09-26T00:32:08.258Z,1019.47
2017-09-26T00:33:08.282Z,1019.44
2017-09-26T00:34:08.302Z,1019.46
2017-09-26T00:35:08.325Z,1019.46
2017-09-26T00:36:08.345Z,1019.43
2017-09-26T00:37:08.367Z,1019.46
2017-09-26T00:38:08.391Z,1019.47
2017-09-26T00:39:08.411Z,1019.42
2017-09-26T00:41:08.455Z,1019.44
2017-09-26T00:42:08.476Z,1019.45
2017-09-26T00:43:08.498Z,1019.44
2017-09-26T00:44:08.519Z,1019.43
2017-09-26T00:45:08.543Z,1019.43
2017-09-26T00:46:08.562Z,1019.44
2017-09-26T00:47:08.584Z,1019.44
2017-09-26T00:48:08.606Z,1019.47
2017-09-26T00:49:08.629Z,1019.51
2017-09-26T00:50:08.647Z,1019.5
2017-09-26T00:51:08.671Z,1019.49
2017-09-26T00:52:08.694Z,1019.51
2017-09-26T00:53:08.714Z,1019.51
2017-09-26T00:54:08.735Z,1019.5
2017-09-26T00:55:08.759Z,1019.5
2017-09-26T00:57:08.806Z,1019.48
2017-09-26T00:58:08.824Z,1019.42
2017-09-26T00:59:08.846Z,1019.45
2017-09-26T01:00:08.867Z,1019.47
2017-09-26T01:01:08.887Z,1019.47
2017-09-26T01:02:08.909Z,1019.48
2017-09-26T01:03:08.933Z,1019.47
2017-09-26T01:04:08.953Z,1019.48
2017-09-26T01:05:08.974Z,1019.52
2017-09-26T01:06:08.996Z,1019.5
2017-09-26T01:07:09.019Z,1019.53
2017-09-26T01:08:09.041Z,1019.54
2017-09-26T01:09:09.062Z,1019.52
2017-09-26T01:10:09.084Z,1019.53
2017-09-26T01:11:09.104Z,1019.54
2017-09-26T01:13:09.146Z,1019.58
2017-09-26T01:14:09.171Z,1019.59
2017-09-26T01:15:09.194Z,1019.55
2017-09-26T01:16:09.214Z,1019.57
2017-09-26T01:17:09.235Z,1019.54
2017-09-26T01:18:09.256Z,1019.54
2017-09-26T01:19:09.281Z,1019.56
2017-09-26T01:20:09.298Z,1019.53
2017-09-26T01:21:09.321Z,1019.51
2017-09-26T01:22:09.343Z,1019.57
2017-09-26T01:23:09.367Z,1019.59
2017-09-26T01:24:09.387Z,1019.59
2017-09-26T01:25:09.409Z,1019.58
2017-09-26T01:26:09.429Z,1019.57
2017-09-26T01:27:09.450Z,1019.6
2017-09-26T01:29:09.495Z,1019.55
2017-09-26T01:30:09.515Z,1019.57
2017-09-26T01:31:09.537Z,1019.58
2017-09-26T01:32:09.559Z,1019.55
2017-09-26T01:33:09.581Z,1019.54
2017-09-26T01:34:09.606Z,1019.53
2017-09-26T01:35:09.623Z,1019.58
2017-09-26T01:36:09.644Z,1019.52
2017-09-26T01:37:09.668Z,1019.55
2017-09-26T01:38:09.688Z,1019.55
2017-09-26T01:39:09.710Z,1019.59
2017-09-26T01:40:09.732Z,1019.59
2017-09-26T01:41:09.752Z,1019.59
2017-09-26T01:42:09.777Z,1019.57
2017-09-26T01:44:09.821Z,1019.62
2017-09-26T01:45:09.842Z,1019.55
2017-09-26T01:46:09.863Z,1019.56
2017-09-26T01:47:09.885Z,1019.58
2017-09-26T01:48:09.930Z,1019.59
2017-09-26T01:49:09.926Z,1019.63
2017-09-26T01:50:09.948Z,1019.62
2017-09-26T01:51:09.973Z,1019.6
2017-09-26T01:52:09.998Z,1019.67
2017-09-26T01:53:10.014Z,1019.66
2017-09-26T01:54:10.035Z,1019.65
2017-09-26T01:55:10.058Z,1019.68
2017-09-26T01:56:10.075Z,1019.66
2017-09-26T01:57:10.099Z,1019.67
2017-09-26T01:58:10.120Z,1019.71
2017-09-26T01:59:10.143Z,1019.69
2017-09-26T02:00:10.165Z,1019.68
2017-09-26T02:01:10.185Z,1019.65
2017-09-26T02:02:10.208Z,1019.62
2017-09-26T02:03:10.229Z,1019.66
2017-09-26T02:04:10.251Z,1019.73
2017-09-26T02:05:10.273Z,1019.69
2017-09-26T02:06:10.299Z,1019.67
2017-09-26T02:07:10.316Z,1019.64
2017-09-26T02:08:10.337Z,1019.65
2017-09-26T02:09:10.359Z,1019.69
2017-09-26T02:10:10.379Z,1019.68
2017-09-26T02:11:10.401Z,1019.69
2017-09-26T02:12:10.424Z,1019.67
2017-09-26T02:13:10.443Z,1019.66
2017-09-26T02:14:10.465Z,1019.68
2017-09-26T02:16:10.510Z,1019.72
2017-09-26T02:17:10.530Z,1019.7
2017-09-26T02:18:10.551Z,1019.7
2017-09-26T02:19:10.574Z,1019.73
2017-09-26T02:20:10.596Z,1019.74
2017-09-26T02:21:10.616Z,1019.73
2017-09-26T02:22:10.637Z,1019.72
2017-09-26T02:23:10.659Z,1019.71
2017-09-26T02:24:10.680Z,1019.73
2017-09-26T02:25:10.704Z,1019.73
2017-09-26T02:26:10.725Z,1019.76
2017-09-26T02:27:10.745Z,1019.8
2017-09-26T02:28:10.767Z,1019.76
2017-09-26T02:29:10.789Z,1019.8
2017-09-26T02:30:10.809Z,1019.78
2017-09-26T02:32:10.857Z,1019.83
2017-09-26T02:33:10.879Z,1019.79
2017-09-26T02:34:10.896Z,1019.73
2017-09-26T02:35:10.917Z,1019.73
2017-09-26T02:36:10.938Z,1019.75
2017-09-26T02:37:10.962Z,1019.73
2017-09-26T02:38:10.982Z,1019.73
2017-09-26T02:39:11.004Z,1019.74
2017-09-26T02:40:11.024Z,1019.8
2017-09-26T02:41:11.047Z,1019.77
2017-09-26T02:42:11.070Z,1019.74
2017-09-26T02:43:11.090Z,1019.75
2017-09-26T02:44:11.117Z,1019.79
2017-09-26T02:45:11.135Z,1019.76
2017-09-26T02:46:11.157Z,1019.76
2017-09-26T02:48:11.200Z,1019.79
2017-09-26T02:49:11.228Z,1019.81
2017-09-26T02:50:11.246Z,1019.77
2017-09-26T02:51:11.262Z,1019.81
2017-09-26T02:52:11.285Z,1019.82
2017-09-26T02:53:11.306Z,1019.82
2017-09-26T02:54:11.329Z,1019.78
2017-09-26T02:55:11.350Z,1019.77
2017-09-26T02:56:11.372Z,1019.81
2017-09-26T02:57:11.393Z,1019.82
2017-09-26T02:58:11.414Z,1019.83
2017-09-26T02:59:11.435Z,1019.78
2017-09-26T03:00:11.459Z,1019.84
2017-09-26T03:01:11.480Z,1019.83
2017-09-26T03:02:11.501Z,1019.78
2017-09-26T03:04:11.543Z,1019.81
2017-09-26T03:05:11.564Z,1019.79
2017-09-26T03:06:11.587Z,1019.8
2017-09-26T03:07:11.607Z,1019.78
2017-09-26T03:08:11.630Z,1019.74
2017-09-26T03:09:11.650Z,1019.76
2017-09-26T03:10:11.674Z,1019.77
2017-09-26T03:11:11.695Z,1019.75
2017-09-26T03:12:11.721Z,1019.75
2017-09-26T03:13:11.738Z,1019.72
2017-09-26T03:14:11.759Z,1019.74
2017-09-26T03:15:11.786Z,1019.72
2017-09-26T03:16:11.803Z,1019.75
2017-09-26T03:17:11.827Z,1019.73
2017-09-26T03:19:11.870Z,1019.74
2017-09-26T03:20:11.890Z,1019.73
2017-09-26T03:21:11.911Z,1019.69
2017-09-26T03:22:11.932Z,1019.7
2017-09-26T03:23:11.956Z,1019.67
2017-09-26T03:24:11.976Z,1019.67
2017-09-26T03:25:11.999Z,1019.65
2017-09-26T03:26:12.019Z,1019.68
2017-09-26T03:27:12.040Z,1019.71
2017-09-26T03:28:12.062Z,1019.73
2017-09-26T03:29:12.083Z,1019.72
2017-09-26T03:30:12.107Z,1019.74
2017-09-26T03:31:12.128Z,1019.72
2017-09-26T03:32:12.150Z,1019.7
2017-09-26T03:33:12.169Z,1019.72
2017-09-26T03:34:12.194Z,1019.7
2017-09-26T03:35:12.214Z,1019.71
2017-09-26T03:36:12.236Z,1019.7
2017-09-26T03:37:12.257Z,1019.68
2017-09-26T03:38:12.279Z,1019.72
2017-09-26T03:39:12.300Z,1019.69
2017-09-26T03:40:12.321Z,1019.71
2017-09-26T03:41:12.376Z,1019.72
2017-09-26T03:42:12.366Z,1019.68
2017-09-26T03:43:12.387Z,1019.73
2017-09-26T03:44:12.410Z,1019.77
2017-09-26T03:45:12.429Z,1019.76
2017-09-26T03:46:12.451Z,1019.81
2017-09-26T03:47:12.473Z,1019.8
2017-09-26T03:48:12.497Z,1019.79
2017-09-26T03:49:12.514Z,1019.82
2017-09-26T03:51:12.561Z,1019.81
2017-09-26T03:52:12.582Z,1019.84
2017-09-26T03:53:12.603Z,1019.86
2017-09-26T03:54:12.624Z,1019.89
2017-09-26T03:55:12.647Z,1019.9
2017-09-26T03:56:12.669Z,1019.89
2017-09-26T03:57:12.691Z,1019.92
2017-09-26T03:58:12.712Z,1019.95
2017-09-26T03:59:12.733Z,1019.96
2017-09-26T04:00:12.756Z,1019.94
2017-09-26T04:01:12.778Z,1020.04
2017-09-26T04:02:12.800Z,1020.04
2017-09-26T04:03:12.822Z,1020
2017-09-26T04:04:12.841Z,1020.02
2017-09-26T04:05:12.865Z,1020.03
2017-09-26T04:07:12.907Z,1020.11
2017-09-26T04:08:12.928Z,1020.05
2017-09-26T04:09:12.949Z,1020.08
2017-09-26T04:10:12.974Z,1020.08
2017-09-26T04:11:12.993Z,1020.1
2017-09-26T04:12:13.014Z,1020.08
2017-09-26T04:13:13.038Z,1020.07
2017-09-26T04:14:13.060Z,1020.11
2017-09-26T04:15:13.078Z,1020.07
2017-09-26T04:16:13.102Z,1020.09
2017-09-26T04:17:13.125Z,1020.07
2017-09-26T04:18:13.145Z,1020.06
2017-09-26T04:19:13.166Z,1020.09
2017-09-26T04:20:13.190Z,1020.03
2017-09-26T04:21:13.210Z,1020.03
2017-09-26T04:23:13.252Z,1020.05
2017-09-26T04:24:13.277Z,1020.04
2017-09-26T04:25:13.299Z,1020.09
2017-09-26T04:26:13.319Z,1020.05
2017-09-26T04:27:13.341Z,1020.05
2017-09-26T04:28:13.363Z,1020.05
2017-09-26T04:29:13.386Z,1020.07
2017-09-26T04:30:13.407Z,1020.07
2017-09-26T04:31:13.429Z,1020.13
2017-09-26T04:32:13.448Z,1020.11
2017-09-26T04:33:13.472Z,1020.11
2017-09-26T04:34:13.493Z,1020.15
2017-09-26T04:35:13.515Z,1020.14
2017-09-26T04:36:13.536Z,1020.14
2017-09-26T04:37:13.559Z,1020.18
2017-09-26T04:39:13.601Z,1020.15
2017-09-26T04:40:13.624Z,1020.14
2017-09-26T04:41:13.645Z,1020.14
2017-09-26T04:42:13.664Z,1020.19
2017-09-26T04:43:13.688Z,1020.25
2017-09-26T04:44:13.711Z,1020.19
2017-09-26T04:45:13.731Z,1020.24
2017-09-26T04:46:13.755Z,1020.25
2017-09-26T04:47:13.776Z,1020.3
2017-09-26T04:48:13.796Z,1020.26
2017-09-26T04:49:13.818Z,1020.26
2017-09-26T04:50:13.840Z,1020.3
2017-09-26T04:51:13.862Z,1020.28
2017-09-26T04:52:13.884Z,1020.24
2017-09-26T04:54:13.928Z,1020.27
2017-09-26T04:55:13.950Z,1020.29
2017-09-26T04:56:13.973Z,1020.24
2017-09-26T04:57:13.993Z,1020.28
2017-09-26T04:58:14.014Z,1020.33
2017-09-26T04:59:14.035Z,1020.34
2017-09-26T05:00:14.058Z,1020.35
2017-09-26T05:01:14.080Z,1020.36
2017-09-26T05:02:14.101Z,1020.37
2017-09-26T05:03:14.107Z,1020.42
2017-09-26T05:04:14.129Z,1020.4
2017-09-26T05:05:14.150Z,1020.37
2017-09-26T05:06:14.171Z,1020.39
2017-09-26T05:07:14.195Z,1020.39
2017-09-26T05:08:14.217Z,1020.4
2017-09-26T05:09:14.240Z,1020.42
2017-09-26T05:10:14.260Z,1020.4
2017-09-26T05:11:14.281Z,1020.4
2017-09-26T05:12:14.305Z,1020.41
2017-09-26T05:13:14.324Z,1020.49
2017-09-26T05:14:14.348Z,1020.46
2017-09-26T05:15:14.369Z,1020.49
2017-09-26T05:16:14.391Z,1020.53
2017-09-26T05:17:14.411Z,1020.54
2017-09-26T05:18:14.433Z,1020.56
2017-09-26T05:19:14.456Z,1020.54
2017-09-26T05:20:14.478Z,1020.54
2017-09-26T05:21:14.500Z,1020.56
2017-09-26T05:22:14.520Z,1020.57
2017-09-26T05:23:14.542Z,1020.58
2017-09-26T05:24:14.564Z,1020.58
2017-09-26T05:26:14.607Z,1020.58
2017-09-26T05:27:14.679Z,1020.58
2017-09-26T05:28:14.651Z,1020.62
2017-09-26T05:29:14.672Z,1020.63
2017-09-26T05:30:14.694Z,1020.64
2017-09-26T05:31:14.718Z,1020.65
2017-09-26T05:32:14.738Z,1020.65
2017-09-26T05:33:14.765Z,1020.61
2017-09-26T05:34:14.782Z,1020.62
2017-09-26T05:35:14.802Z,1020.65
2017-09-26T05:36:14.824Z,1020.61
2017-09-26T05:37:14.846Z,1020.57
2017-09-26T05:38:14.867Z,1020.58
2017-09-26T05:39:14.889Z,1020.65
2017-09-26T05:40:14.911Z,1020.61
2017-09-26T05:42:14.957Z,1020.64
2017-09-26T05:43:14.975Z,1020.66
2017-09-26T05:44:14.999Z,1020.65
2017-09-26T05:45:15.021Z,1020.67
2017-09-26T05:46:15.042Z,1020.67
2017-09-26T05:47:15.064Z,1020.66
2017-09-26T05:48:15.085Z,1020.68
2017-09-26T05:49:15.109Z,1020.68
2017-09-26T05:50:15.129Z,1020.72
2017-09-26T05:51:15.151Z,1020.67
2017-09-26T05:52:15.173Z,1020.71
2017-09-26T05:53:15.195Z,1020.7
2017-09-26T05:54:15.217Z,1020.74
2017-09-26T05:55:15.238Z,1020.76
2017-09-26T05:56:15.260Z,1020.76
2017-09-26T05:58:15.304Z,1020.78
2017-09-26T05:59:15.327Z,1020.83
2017-09-26T06:00:15.348Z,1020.77
2017-09-26T06:01:15.369Z,1020.82
2017-09-26T06:02:15.393Z,1020.83
2017-09-26T06:03:15.415Z,1020.86
2017-09-26T06:04:15.436Z,1020.8
2017-09-26T06:05:15.457Z,1020.86
2017-09-26T06:06:15.477Z,1020.85
2017-09-26T06:07:15.501Z,1020.88
2017-09-26T06:08:15.520Z,1020.82
2017-09-26T06:09:15.544Z,1020.86
2017-09-26T06:10:15.566Z,1020.84
2017-09-26T06:11:15.589Z,1020.85
2017-09-26T06:12:15.611Z,1020.86
2017-09-26T06:14:15.653Z,1020.88
2017-09-26T06:15:15.676Z,1020.87
2017-09-26T06:16:15.698Z,1020.86
2017-09-26T06:17:15.720Z,1020.83
2017-09-26T06:18:15.741Z,1020.85
2017-09-26T06:19:15.768Z,1020.82
2017-09-26T06:20:15.785Z,1020.84
2017-09-26T06:21:15.807Z,1020.88
2017-09-26T06:22:15.828Z,1020.87
2017-09-26T06:23:15.851Z,1020.85
2017-09-26T06:24:15.873Z,1020.83
2017-09-26T06:25:15.894Z,1020.88
2017-09-26T06:26:15.916Z,1020.89
2017-09-26T06:27:15.940Z,1020.87
2017-09-26T06:29:15.984Z,1020.85
2017-09-26T06:30:16.003Z,1020.88
2017-09-26T06:31:16.029Z,1020.83
2017-09-26T06:32:16.050Z,1020.9
2017-09-26T06:33:16.072Z,1020.9
2017-09-26T06:34:16.093Z,1020.97
2017-09-26T06:35:16.115Z,1020.91
2017-09-26T06:36:16.140Z,1020.92
2017-09-26T06:37:16.158Z,1020.91
2017-09-26T06:38:16.182Z,1020.92
2017-09-26T06:39:16.205Z,1020.92
2017-09-26T06:40:16.227Z,1020.89
2017-09-26T06:41:16.248Z,1020.89
2017-09-26T06:42:16.269Z,1020.89
2017-09-26T06:43:16.292Z,1020.92
2017-09-26T06:44:16.315Z,1020.96
2017-09-26T06:45:16.337Z,1020.97
2017-09-26T06:46:16.358Z,1020.97
2017-09-26T06:47:16.380Z,1020.97
2017-09-26T06:48:16.403Z,1020.95
2017-09-26T06:49:16.426Z,1021.01
2017-09-26T06:50:16.446Z,1021.01
2017-09-26T06:51:16.469Z,1021
2017-09-26T06:52:16.491Z,1020.98
2017-09-26T06:53:16.514Z,1020.99
2017-09-26T06:54:16.535Z,1020.95
2017-09-26T06:55:16.558Z,1021.04
2017-09-26T06:56:16.583Z,1021.02
2017-09-26T06:57:16.604Z,1021.03
2017-09-26T06:58:16.626Z,1021.02
2017-09-26T06:59:16.647Z,1021.06
2017-09-26T07:01:16.690Z,1021.09
2017-09-26T07:02:16.713Z,1021.08
2017-09-26T07:03:16.733Z,1021.12
2017-09-26T07:04:16.758Z,1021.1
2017-09-26T07:05:16.779Z,1021.11
2017-09-26T07:06:16.801Z,1021.11
2017-09-26T07:07:16.824Z,1021.1
2017-09-26T07:08:16.847Z,1021.16
2017-09-26T07:09:16.867Z,1021.18
2017-09-26T07:10:16.890Z,1021.2
2017-09-26T07:11:16.912Z,1021.2
2017-09-26T07:12:16.935Z,1021.21
2017-09-26T07:13:16.959Z,1021.21
2017-09-26T07:14:16.980Z,1021.22
2017-09-26T07:15:17.001Z,1021.24
2017-09-26T07:17:17.049Z,1021.23
2017-09-26T07:18:17.068Z,1021.29
2017-09-26T07:19:17.090Z,1021.26
2017-09-26T07:20:17.114Z,1021.28
2017-09-26T07:21:17.135Z,1021.27
2017-09-26T07:22:17.158Z,1021.27
2017-09-26T07:23:17.180Z,1021.28
2017-09-26T07:24:17.204Z,1021.31
2017-09-26T07:25:17.225Z,1021.38
2017-09-26T07:26:17.248Z,1021.37
2017-09-26T07:27:17.270Z,1021.4
2017-09-26T07:28:17.292Z,1021.38
2017-09-26T07:29:17.315Z,1021.34
2017-09-26T07:30:17.340Z,1021.45
2017-09-26T07:31:17.362Z,1021.42
2017-09-26T07:33:17.405Z,1021.4
2017-09-26T07:34:17.428Z,1021.4
2017-09-26T07:35:17.450Z,1021.45
2017-09-26T07:36:17.474Z,1021.43
2017-09-26T07:37:17.494Z,1021.44
2017-09-26T07:38:17.517Z,1021.44
2017-09-26T07:39:17.540Z,1021.41
2017-09-26T07:40:17.562Z,1021.43
2017-09-26T07:41:17.586Z,1021.42
2017-09-26T07:42:17.608Z,1021.42
2017-09-26T07:43:17.630Z,1021.41
2017-09-26T07:44:17.651Z,1021.43
2017-09-26T07:45:17.677Z,1021.43
2017-09-26T07:46:17.698Z,1021.5
2017-09-26T07:47:17.720Z,1021.46
2017-09-26T07:49:17.767Z,1021.45
2017-09-26T07:50:17.789Z,1021.45
2017-09-26T07:51:17.810Z,1021.49
2017-09-26T07:52:17.833Z,1021.48
2017-09-26T07:53:17.858Z,1021.45
2017-09-26T07:54:17.879Z,1021.47
2017-09-26T07:55:17.899Z,1021.43
2017-09-26T07:56:17.923Z,1021.44
2017-09-26T07:57:17.947Z,1021.49
2017-09-26T07:58:17.969Z,1021.45
2017-09-26T07:59:17.993Z,1021.47
2017-09-26T08:00:18.016Z,1021.45
2017-09-26T08:01:18.038Z,1021.44
2017-09-26T08:02:18.061Z,1021.48
2017-09-26T08:04:18.107Z,1021.48
2017-09-26T08:05:18.129Z,1021.44
2017-09-26T08:06:18.152Z,1021.46
2017-09-26T08:07:18.177Z,1021.44
2017-09-26T08:08:18.199Z,1021.46
2017-09-26T08:09:18.222Z,1021.46
2017-09-26T08:10:18.246Z,1021.47
2017-09-26T08:11:18.266Z,1021.47
2017-09-26T08:12:18.290Z,1021.44
2017-09-26T08:13:18.313Z,1021.43
2017-09-26T08:14:18.336Z,1021.46
2017-09-26T08:15:18.359Z,1021.5
2017-09-26T08:16:18.384Z,1021.48
2017-09-26T08:17:18.404Z,1021.59
2017-09-26T08:18:18.427Z,1021.56
2017-09-26T08:19:18.451Z,1021.58
2017-09-26T08:20:18.473Z,1021.58
2017-09-26T08:21:18.497Z,1021.58
2017-09-26T08:22:18.520Z,1021.53
2017-09-26T08:23:18.543Z,1021.56
2017-09-26T08:24:18.565Z,1021.53
2017-09-26T08:25:18.590Z,1021.59
2017-09-26T08:26:18.613Z,1021.56
2017-09-26T08:27:18.635Z,1021.59
2017-09-26T08:28:18.660Z,1021.6
2017-09-26T08:29:18.682Z,1021.62
2017-09-26T08:30:18.706Z,1021.62
2017-09-26T08:31:18.728Z,1021.6
2017-09-26T08:32:18.750Z,1021.64
2017-09-26T08:33:18.776Z,1021.62
2017-09-26T08:34:18.799Z,1021.66
2017-09-26T08:36:18.845Z,1021.65
2017-09-26T08:37:18.869Z,1021.66
2017-09-26T08:38:18.892Z,1021.68
2017-09-26T08:39:18.915Z,1021.69
2017-09-26T08:40:18.939Z,1021.7
2017-09-26T08:41:18.964Z,1021.72
2017-09-26T08:42:18.987Z,1021.68
2017-09-26T08:43:19.010Z,1021.63
2017-09-26T08:44:19.034Z,1021.67
2017-09-26T08:45:19.055Z,1021.66
2017-09-26T08:46:19.080Z,1021.65
2017-09-26T08:47:19.103Z,1021.67
2017-09-26T08:48:19.128Z,1021.69
2017-09-26T08:49:19.150Z,1021.73
2017-09-26T08:50:19.173Z,1021.73
2017-09-26T08:52:19.219Z,1021.71
2017-09-26T08:53:19.243Z,1021.73
2017-09-26T08:54:19.267Z,1021.74
2017-09-26T08:55:19.290Z,1021.74
2017-09-26T08:56:19.313Z,1021.77
2017-09-26T08:57:19.337Z,1021.78
2017-09-26T08:58:19.362Z,1021.76
2017-09-26T08:59:19.386Z,1021.76
2017-09-26T09:00:19.406Z,1021.79
2017-09-26T09:01:19.431Z,1021.79
2017-09-26T09:02:19.454Z,1021.78
2017-09-26T09:03:19.478Z,1021.75
2017-09-26T09:04:19.502Z,1021.76
2017-09-26T09:05:19.524Z,1021.76
2017-09-26T09:06:19.548Z,1021.79
2017-09-26T09:08:19.594Z,1021.81
2017-09-26T09:09:19.618Z,1021.79
2017-09-26T09:10:19.641Z,1021.82
2017-09-26T09:11:19.664Z,1021.82
2017-09-26T09:12:19.688Z,1021.79
2017-09-26T09:13:19.713Z,1021.78
2017-09-26T09:14:19.735Z,1021.81
2017-09-26T09:15:19.757Z,1021.8
2017-09-26T09:16:19.782Z,1021.8
2017-09-26T09:17:19.808Z,1021.78
2017-09-26T09:18:19.826Z,1021.81
2017-09-26T09:19:19.851Z,1021.79
2017-09-26T09:20:19.874Z,1021.81
2017-09-26T09:21:19.898Z,1021.82
2017-09-26T09:22:19.997Z,1021.77
2017-09-26T09:24:19.967Z,1021.77
2017-09-26T09:25:19.991Z,1021.8
2017-09-26T09:26:20.016Z,1021.79
2017-09-26T09:27:20.038Z,1021.84
2017-09-26T09:28:20.062Z,1021.83
2017-09-26T09:29:20.084Z,1021.84
2017-09-26T09:30:20.110Z,1021.8
2017-09-26T09:31:20.132Z,1021.79
2017-09-26T09:32:20.156Z,1021.82
2017-09-26T09:33:20.180Z,1021.8
2017-09-26T09:34:20.202Z,1021.78
2017-09-26T09:35:20.226Z,1021.8
2017-09-26T09:36:20.249Z,1021.82
2017-09-26T09:37:20.273Z,1021.84
2017-09-26T09:39:20.321Z,1021.85
2017-09-26T09:40:20.342Z,1021.91
2017-09-26T09:41:20.366Z,1021.82
2017-09-26T09:42:20.393Z,1021.83
2017-09-26T09:43:20.417Z,1021.9
2017-09-26T09:44:20.439Z,1021.88
2017-09-26T09:45:20.464Z,1021.9
2017-09-26T09:46:20.487Z,1021.95
2017-09-26T09:47:20.513Z,1021.91
2017-09-26T09:48:20.535Z,1021.91
2017-09-26T09:49:20.561Z,1021.93
2017-09-26T09:50:20.584Z,1021.91
2017-09-26T09:51:20.609Z,1021.9
2017-09-26T09:52:20.633Z,1021.86
2017-09-26T09:53:20.656Z,1021.88
2017-09-26T09:54:20.680Z,1021.88
2017-09-26T09:55:20.703Z,1021.89
2017-09-26T09:56:20.729Z,1021.88
2017-09-26T09:57:20.755Z,1021.91
2017-09-26T09:58:20.776Z,1021.87
2017-09-26T09:59:20.800Z,1021.92
2017-09-26T10:00:20.826Z,1021.89
2017-09-26T10:01:20.849Z,1021.92
2017-09-26T10:02:20.872Z,1021.92
2017-09-26T10:03:20.896Z,1021.88
2017-09-26T10:04:20.921Z,1021.85
2017-09-26T10:05:20.946Z,1021.87
2017-09-26T10:06:20.971Z,1021.92
2017-09-26T10:07:20.994Z,1021.91
2017-09-26T10:08:21.018Z,1021.89
2017-09-26T10:09:21.042Z,1021.91
2017-09-26T10:11:21.090Z,1021.91
2017-09-26T10:12:21.114Z,1021.91
2017-09-26T10:13:21.137Z,1021.89
2017-09-26T10:14:21.162Z,1021.9
2017-09-26T10:15:21.188Z,1021.93
2017-09-26T10:16:21.210Z,1021.94
2017-09-26T10:17:21.235Z,1021.89
2017-09-26T10:18:21.259Z,1021.9
2017-09-26T10:19:21.282Z,1021.89
2017-09-26T10:20:21.305Z,1021.88
2017-09-26T10:21:21.329Z,1021.88
2017-09-26T10:22:21.404Z,1021.86
2017-09-26T10:23:21.380Z,1021.9
2017-09-26T10:24:21.401Z,1021.88
2017-09-26T10:25:21.426Z,1021.88
2017-09-26T10:27:21.474Z,1021.83
2017-09-26T10:28:21.498Z,1021.83
2017-09-26T10:29:21.523Z,1021.81
2017-09-26T10:30:21.546Z,1021.81
2017-09-26T10:31:21.571Z,1021.79
2017-09-26T10:32:21.595Z,1021.82
2017-09-26T10:33:21.619Z,1021.79
2017-09-26T10:34:21.644Z,1021.83
2017-09-26T10:35:21.667Z,1021.83
2017-09-26T10:36:21.690Z,1021.85
2017-09-26T10:37:21.717Z,1021.89
2017-09-26T10:38:21.743Z,1021.87
2017-09-26T10:39:21.766Z,1021.85
2017-09-26T10:40:21.789Z,1021.92
2017-09-26T10:41:21.817Z,1021.87
2017-09-26T10:43:21.862Z,1021.93
2017-09-26T10:44:21.889Z,1021.89
2017-09-26T10:45:21.913Z,1021.94
2017-09-26T10:46:21.936Z,1021.9
2017-09-26T10:47:21.960Z,1021.9
2017-09-26T10:48:21.986Z,1021.91
2017-09-26T10:49:22.010Z,1021.95
2017-09-26T10:50:22.035Z,1021.93
2017-09-26T10:51:22.059Z,1022.01
2017-09-26T10:52:22.084Z,1021.94
2017-09-26T10:53:22.106Z,1021.94
2017-09-26T10:54:22.131Z,1021.91
2017-09-26T10:55:22.156Z,1021.95
2017-09-26T10:56:22.181Z,1021.93
2017-09-26T10:57:22.203Z,1021.89
2017-09-26T10:59:22.253Z,1021.92
2017-09-26T11:00:22.277Z,1021.87
2017-09-26T11:01:22.301Z,1021.93
2017-09-26T11:02:22.325Z,1021.97
2017-09-26T11:03:22.351Z,1021.88
2017-09-26T11:04:22.375Z,1021.9
2017-09-26T11:05:22.399Z,1021.92
2017-09-26T11:06:22.425Z,1021.92
2017-09-26T11:07:22.447Z,1021.88
2017-09-26T11:08:22.503Z,1021.93
2017-09-26T11:09:22.495Z,1021.98
2017-09-26T11:10:22.520Z,1021.95
2017-09-26T11:11:22.545Z,1021.95
2017-09-26T11:12:22.570Z,1021.94
2017-09-26T11:14:22.619Z,1021.97
2017-09-26T11:15:22.643Z,1021.98
2017-09-26T11:16:22.668Z,1021.88
2017-09-26T11:17:22.693Z,1022.01
2017-09-26T11:18:22.718Z,1021.94
2017-09-26T11:19:22.740Z,1021.93
2017-09-26T11:20:22.765Z,1021.96
2017-09-26T11:21:22.795Z,1021.89
2017-09-26T11:22:22.813Z,1021.89
2017-09-26T11:23:22.839Z,1021.88
2017-09-26T11:24:22.864Z,1021.9
2017-09-26T11:25:22.897Z,1021.91
2017-09-26T11:26:22.912Z,1021.92
2017-09-26T11:27:22.935Z,1021.93
2017-09-26T11:28:22.959Z,1021.9
2017-09-26T11:29:22.983Z,1021.91
2017-09-26T11:30:23.007Z,1021.91
2017-09-26T11:31:23.032Z,1021.88
2017-09-26T11:32:23.058Z,1021.91
2017-09-26T11:33:23.081Z,1021.92
2017-09-26T11:34:23.106Z,1021.89
2017-09-26T11:35:23.130Z,1021.85
2017-09-26T11:36:23.156Z,1021.88
2017-09-26T11:37:23.180Z,1021.89
2017-09-26T11:38:23.208Z,1021.88
2017-09-26T11:39:23.228Z,1021.89
2017-09-26T11:40:23.252Z,1021.87
2017-09-26T11:41:23.276Z,1021.87
2017-09-26T11:42:23.299Z,1021.85
2017-09-26T11:43:23.331Z,1021.9
2017-09-26T11:44:23.350Z,1021.86
2017-09-26T11:46:23.398Z,1021.9
2017-09-26T11:47:23.423Z,1021.91
2017-09-26T11:48:23.448Z,1021.93
2017-09-26T11:49:23.471Z,1021.92
2017-09-26T11:50:23.497Z,1021.88
2017-09-26T11:51:23.521Z,1021.85
2017-09-26T11:52:23.544Z,1021.86
2017-09-26T11:53:23.568Z,1021.85
2017-09-26T11:54:23.594Z,1021.9
2017-09-26T11:55:23.617Z,1021.86
2017-09-26T11:56:23.641Z,1021.87
2017-09-26T11:57:23.665Z,1021.88
2017-09-26T11:58:23.689Z,1021.91
2017-09-26T11:59:23.713Z,1021.85
2017-09-26T12:00:23.738Z,1021.85
2017-09-26T12:02:23.787Z,1021.83
2017-09-26T12:03:23.812Z,1021.92
2017-09-26T12:04:23.836Z,1021.84
2017-09-26T12:05:23.860Z,1021.88
2017-09-26T12:06:23.885Z,1021.87
2017-09-26T12:07:23.909Z,1021.86
2017-09-26T12:08:23.933Z,1021.88
2017-09-26T12:09:23.957Z,1021.93
2017-09-26T12:10:23.981Z,1021.91
2017-09-26T12:11:24.012Z,1021.95
2017-09-26T12:12:24.029Z,1021.94
2017-09-26T12:13:24.055Z,1021.94
2017-09-26T12:14:24.083Z,1021.91
2017-09-26T12:15:24.102Z,1021.89
2017-09-26T12:16:24.127Z,1021.89
2017-09-26T12:18:24.176Z,1021.84
2017-09-26T12:19:24.201Z,1021.9
2017-09-26T12:20:24.226Z,1021.81
2017-09-26T12:21:24.250Z,1021.85
2017-09-26T12:22:24.275Z,1021.82
2017-09-26T12:23:24.299Z,1021.83
2017-09-26T12:24:24.325Z,1021.8
2017-09-26T12:25:24.349Z,1021.79
2017-09-26T12:26:24.374Z,1021.75
2017-09-26T12:27:24.398Z,1021.82
2017-09-26T12:28:24.421Z,1021.74
2017-09-26T12:29:24.445Z,1021.74
2017-09-26T12:30:24.470Z,1021.71
2017-09-26T12:31:24.494Z,1021.77
2017-09-26T12:32:24.520Z,1021.76
2017-09-26T12:34:24.568Z,1021.79
2017-09-26T12:35:24.594Z,1021.79
2017-09-26T12:36:24.618Z,1021.76
2017-09-26T12:37:24.643Z,1021.73
2017-09-26T12:38:24.668Z,1021.7
2017-09-26T12:39:24.693Z,1021.66
2017-09-26T12:40:24.717Z,1021.69
2017-09-26T12:41:24.742Z,1021.64
2017-09-26T12:42:24.766Z,1021.64
2017-09-26T12:43:24.792Z,1021.59
2017-09-26T12:44:24.816Z,1021.65
2017-09-26T12:45:24.841Z,1021.62
2017-09-26T12:46:24.866Z,1021.59
2017-09-26T12:47:24.892Z,1021.61
2017-09-26T12:49:24.942Z,1021.61